Boca Raton, FL (33431)

3:16 PM EDT on July 06, 2015 (GMT -0400)
University Gardens | | Change Station
CLOSE
Current Station
Personal Weather Station
Location: Boca Raton, FL
Elevation: 39 ft
Nearby Weather Stations

Elev 39 ft 26.39 °N, 80.09 °W | Updated 6 minutes ago

Mostly Cloudy
Mostly Cloudy
89.4 °F
Feels Like 104 °F
N
5.4
Wind Variable Wind from SE
Gusts 10.1 mph

Today
High -- | Low -- °F
--% Chance of Precip.
Yesterday
High -- | Low -- °F
Precip. -- in
6:33 AM 8:17 PM
Waning Gibbous, 73% visible
Pressure 30.15 in
Visibility 8.0 miles
Clouds Clear
Heat Index 104 °F
Dew Point 78 °F
Humidity 69%
Rainfall 0.11 in
Snow Depth Not available.
UV 13 out of 12
Pollen 4.60 out of 12
Air Quality Not available.
Flu Activity Not available.
SPECI KPMP 061906Z 10009KT 8SM CLR 32/23 A3015 RMK AO2 LTG DSNT SW-NW T03220233

More Conditions Fewer Conditions

Pressure 30.15 in
Visibility 8.0 miles
Clouds Clear
Heat Index 104 °F
Dew Point 78 °F
Humidity 69%
Rainfall 0.11 in
Snow Depth Not available.
UV 13 out of 12
Pollen 4.60 out of 12
Air Quality Not available.
Flu Activity Not available.
SPECI KPMP 061906Z 10009KT 8SM CLR 32/23 A3015 RMK AO2 LTG DSNT SW-NW T03220233

More Conditions Fewer Conditions

10-Day Weather Forecast

×

Almanac

Astronomy

Jul. 06, 2015 Rise Set
Actual Time
Civil Twilight
Nautical Twilight
Astronomical Twilight
Moon
Length of Visible Light
Length of Day
Tomorrow will be .
, % of the Moon is Illuminated

Today's Extremes

State Highs State Lows

Community

WunderPhotos

Upload Photos

1,835,616 photos uploaded!

WunderBlogs® & News

Nearby

Air Quality

  Air Quality AQ Index Pollutant
Not available.

Snow Depth

Station Depth Elevation

Earthquake Activity

City Distance Mag. Time & Date
Minimum magnitude displayed is 2.5.

Coastal Water Temperatures

Place Temperature

Stations

Nearby Weather Stations

Station Location Temp. Windchill Dew Point Humidity Wind Precip. Elev Updated Type